Date,TemperatureHighF,TemperatureAvgF,TemperatureLowF,DewpointHighF,DewpointAvgF,DewpointLowF,HumidityHigh,HumidityAvg,HumidityLow,PressureMaxIn,PressureMinIn,WindSpeedMaxMPH,WindSpeedAvgMPH,GustSpeedMaxMPH,PrecipitationSumIn
2013-1-1,33.7,21.4,10.2,14.4,6.9,0.5,87,57,31,30.09,29.98,14,2,14,0.00
2013-1-2,33.7,22.9,11.5,11.0,6.9,2.8,70,51,30,30.22,30.08,13,2,13,0.00
2013-1-3,40.0,22.8,9.9,7.4,1.7,-5.8,69,44,15,30.23,30.13,9,1,9,0.00
2013-1-4,49.1,28.8,14.3,12.7,7.8,2.6,67,45,17,30.15,30.00,8,1,8,0.00
2013-1-5,42.2,27.1,15.1,15.5,11.2,5.8,76,53,30,30.22,30.04,13,2,13,0.00
2013-1-6,50.1,30.2,12.7,14.0,5.3,-6.8,66,40,10,30.21,29.93,6,1,6,0.00
2013-1-7,53.8,37.5,25.1,12.3,8.9,3.4,51,33,14,30.00,29.85,13,2,13,0.00
2013-1-8,52.6,41.3,25.0,18.7,15.1,6.0,62,36,20,30.17,29.85,23,4,23,0.00
2013-1-9,62.7,38.5,22.9,19.8,15.4,12.7,68,43,15,30.24,30.02,13,3,13,0.00
2013-1-10,47.2,37.1,26.4,22.1,14.3,7.7,63,40,24,30.02,29.55,15,2,15,0.00
2013-1-11,42.1,29.1,14.7,27.9,15.6,-3.4,87,60,18,29.74,29.39,24,5,24,0.00
2013-1-12,21.8,9.0,2.9,6.4,2.1,-4.5,94,74,31,29.95,29.74,16,3,16,0.00
2013-1-13,15.8,7.6,0.7,3.4,0.4,-3.6,92,73,54,30.05,29.94,10,2,10,0.00
2013-1-14,15.8,7.7,1.1,3.5,-0.2,-4.4,83,70,56,30.07,29.98,10,2,10,0.00
2013-1-15,31.2,18.2,-1.0,13.3,3.2,-5.9,80,54,34,30.09,30.00,10,2,10,0.00
2013-1-16,52.9,35.4,20.7,21.2,17.4,12.2,73,50,28,30.29,30.08,12,2,12,0.00
2013-1-17,52.7,33.7,20.5,19.9,16.2,10.0,78,53,22,30.37,30.18,9,1,9,0.00
2013-1-18,59.0,40.5,22.0,11.4,5.3,-1.4,55,27,9,30.18,30.05,18,4,18,0.00
2013-1-19,61.9,47.3,30.3,8.8,3.2,-8.5,34,18,6,30.20,30.05,25,4,25,0.00
2013-1-20,48.9,35.6,24.1,16.7,11.3,3.5,64,38,19,30.20,30.10,15,3,15,0.00
2013-1-21,57.1,39.4,17.7,16.1,6.9,-8.5,79,36,8,30.18,30.05,24,5,24,0.00
2013-1-22,64.4,51.5,31.9,0.0,-13.1,-29.2,25,8,3,30.13,30.03,23,6,23,0.00
2013-1-23,55.9,42.1,31.4,11.4,1.8,-11.2,29,19,12,30.16,30.10,7,1,7,0.00
2013-1-24,67.0,48.8,29.4,27.9,14.6,-1.3,39,27,8,30.10,29.96,29,6,29,0.00
2013-1-25,58.7,43.6,31.3,29.0,25.7,22.3,73,51,30,30.12,30.04,10,2,10,0.00
2013-1-26,53.6,40.8,28.6,36.6,28.1,22.5,84,63,35,30.06,29.81,7,1,7,0.00
2013-1-27,59.0,42.9,29.2,37.3,30.4,17.7,94,65,31,29.81,29.75,11,2,11,0.00
2013-1-28,57.7,39.1,26.9,30.4,25.7,18.8,92,63,22,29.76,29.59,25,4,25,0.00
2013-1-29,31.4,25.4,19.1,24.4,15.5,7.2,98,68,37,29.92,29.69,18,3,18,0.16
2013-1-30,39.4,29.8,14.4,16.2,10.7,1.1,77,46,31,29.92,29.82,26,8,26,0.02
2013-1-31,47.8,38.4,28.8,20.7,16.5,11.3,66,42,25,30.08,29.88,28,6,28,0.02
2013-2-1,48.9,36.3,24.1,23.3,18.0,14.4,71,49,26,30.15,30.03,32,6,32,0.00
2013-2-2,58.2,37.8,21.3,19.5,15.0,3.6,77,45,11,30.25,30.15,23,3,23,0.00
2013-2-3,54.2,39.7,24.3,19.5,10.7,0.6,66,36,13,30.23,29.90,21,3,21,0.00
2013-2-4,51.7,39.6,26.3,15.0,10.0,4.1,51,31,16,29.96,29.86,24,4,24,0.00
2013-2-5,61.4,44.4,29.9,20.5,16.9,14.1,55,35,18,30.03,29.86,16,3,16,0.00
2013-2-6,55.1,41.2,30.0,34.6,25.2,20.1,93,58,27,30.06,29.83,13,3,13,0.15
2013-2-7,47.7,35.4,26.1,32.8,24.4,14.9,94,67,33,30.14,29.99,14,3,14,0.01
2013-2-8,52.1,37.2,25.3,20.4,17.0,14.7,71,46,24,29.99,29.72,10,2,10,0.00
2013-2-9,36.7,30.4,24.2,29.5,20.9,13.2,92,69,50,29.74,29.58,18,4,18,0.00
2013-2-10,35.2,27.1,21.7,21.0,16.0,9.4,88,65,37,30.00,29.62,13,3,13,0.01
2013-2-11,27.6,22.5,17.5,17.4,15.5,12.2,89,75,58,30.01,29.93,12,2,12,0.00
2013-2-12,41.2,28.1,14.0,12.4,4.5,-8.6,81,43,12,30.01,29.97,10,2,10,0.00
2013-2-13,46.7,36.1,21.3,16.1,11.7,8.1,60,38,22,29.99,29.91,30,9,30,0.00
2013-2-14,41.3,27.9,20.1,23.8,18.0,10.4,88,69,28,30.21,29.98,22,4,22,0.00
2013-2-15,39.4,26.1,14.1,19.3,15.0,10.5,87,65,34,30.22,30.16,12,2,12,0.04
2013-2-16,55.4,42.5,25.8,16.3,13.5,10.7,59,33,19,30.18,29.97,27,8,27,0.00
2013-2-17,61.1,43.4,26.1,18.2,4.2,-22.0,55,27,3,29.97,29.62,26,5,26,0.00
2013-2-18,40.6,31.6,21.4,21.7,11.1,-0.8,84,48,18,30.04,29.64,26,6,26,0.00
2013-2-19,41.8,29.4,16.5,14.2,9.4,5.0,69,44,27,30.04,29.79,12,2,12,0.00
2013-2-20,35.0,26.6,20.8,27.0,18.8,13.8,92,74,49,29.80,29.66,12,3,12,0.00
2013-2-21,26.7,21.4,16.3,20.6,17.0,13.2,90,83,70,29.86,29.71,12,3,12,0.16
2013-2-22,34.2,23.6,13.4,21.8,16.0,9.6,88,73,53,29.92,29.83,15,1,15,0.06
2013-2-23,47.4,31.6,17.2,28.0,17.3,7.9,90,58,31,29.86,29.63,20,5,20,0.00
2013-2-24,29.3,26.4,23.7,26.9,24.2,21.0,93,91,88,30.06,29.73,26,8,26,0.00
2013-2-25,39.2,24.7,10.0,22.9,15.2,7.2,90,70,30,30.05,29.83,12,2,12,0.18
2013-2-26,32.0,26.2,16.4,26.0,19.3,11.4,89,75,59,30.07,29.79,21,4,21,0.02
2013-2-27,38.4,26.7,14.1,15.9,11.8,6.8,82,56,28,30.17,30.07,13,2,13,0.00
2013-2-28,42.4,30.3,14.4,15.6,10.8,5.7,75,47,26,30.18,30.12,29,6,29,0.00
2013-3-1,49.7,37.9,26.4,23.9,19.7,14.4,69,49,32,30.25,30.16,25,4,25,0.00
2013-3-2,60.7,46.1,29.8,28.1,24.4,21.5,75,45,24,30.24,30.05,22,4,22,0.00
2013-3-3,62.7,49.1,37.3,28.3,23.5,19.8,68,39,20,30.05,29.72,23,4,23,0.00
2013-3-4,46.4,30.8,19.6,28.9,23.1,13.5,92,74,45,30.16,29.73,22,4,22,0.00
2013-3-5,39.7,26.6,11.6,21.1,15.2,7.5,86,64,41,30.18,30.10,13,2,13,0.03
2013-3-6,60.6,37.9,20.5,26.6,20.4,15.5,86,56,18,30.10,29.85,12,2,12,0.00
2013-3-7,64.0,46.4,29.5,28.2,23.5,18.9,73,45,19,29.96,29.87,15,3,15,0.00
2013-3-8,49.0,38.4,30.9,32.8,28.9,23.8,84,69,47,29.97,29.74,12,2,12,0.00
2013-3-9,35.9,31.4,22.7,32.2,28.1,18.0,94,88,75,30.06,29.68,25,6,25,0.11
2013-3-10,42.7,30.9,14.8,24.5,17.4,11.4,94,60,33,30.09,30.03,13,2,13,0.15
2013-3-11,53.9,41.0,29.7,30.6,22.4,14.9,92,52,26,30.10,29.91,28,6,28,0.00
2013-3-12,38.7,31.2,24.8,29.5,26.5,21.9,93,83,66,30.24,30.10,9,2,9,0.19
2013-3-13,65.0,47.6,30.1,34.3,26.9,20.2,90,51,20,30.22,30.14,18,4,18,0.00
2013-3-14,71.8,55.7,38.4,29.1,23.2,10.5,62,32,10,30.27,30.14,20,3,20,0.00
2013-3-15,73.0,61.1,46.9,27.7,23.1,15.9,41,24,12,30.14,29.91,21,5,21,0.00
2013-3-16,54.8,46.7,40.2,36.9,31.3,23.0,72,56,30,30.01,29.84,17,4,17,0.00
2013-3-17,59.5,44.6,31.4,29.3,23.3,11.7,75,46,16,29.86,29.64,33,9,33,0.00
2013-3-18,49.4,39.7,26.3,20.5,14.2,9.7,63,37,21,29.92,29.85,26,7,26,0.00
2013-3-19,53.7,42.2,29.7,21.1,5.1,-26.1,58,27,4,30.28,29.90,26,8,26,0.00
2013-3-20,54.4,38.8,21.9,26.0,19.1,14.5,77,49,26,30.28,29.77,13,2,13,0.00
2013-3-21,59.0,45.7,35.0,30.6,23.9,9.8,68,44,21,29.77,29.59,29,6,29,0.00
2013-3-23,49.2,18.6,13.6,18.9,14.8,10.7,98,86,22,30.12,29.69,12,3,12,0.00
2013-3-24,26.1,17.6,5.1,19.5,13.0,1.8,90,82,69,30.10,30.03,10,2,10,0.24
2013-3-25,34.3,23.7,11.6,17.2,13.4,8.2,90,67,38,30.18,30.09,12,2,12,0.04
2013-3-26,53.5,34.5,17.0,31.1,19.9,11.7,82,58,28,30.15,29.90,12,2,12,0.00
2013-3-27,54.9,42.0,28.4,36.9,29.6,23.3,84,63,39,30.08,30.00,13,2,13,0.00
2013-3-28,64.6,46.9,31.6,35.2,30.7,26.0,92,59,24,30.11,30.04,13,2,13,0.00
2013-3-29,66.0,50.6,35.9,35.2,31.0,25.9,79,51,24,30.12,30.05,22,4,22,0.00
2013-3-30,66.7,51.1,36.8,38.2,30.3,21.9,80,50,20,30.20,30.03,26,5,26,0.00
2013-3-31,69.7,52.6,33.6,36.2,24.7,2.4,86,43,8,30.20,29.96,20,4,20,0.00
2013-4-1,51.9,42.6,33.2,35.0,30.6,24.6,84,63,39,30.13,29.99,24,7,24,0.00
2013-4-2,40.6,37.8,35.6,35.2,33.8,31.8,93,85,75,30.10,30.04,14,4,14,0.12
2013-4-3,60.7,46.9,36.5,38.8,33.2,26.7,95,65,29,30.13,30.04,13,2,13,0.02
2013-4-4,69.1,54.6,36.1,34.0,29.0,23.8,80,42,19,30.14,30.02,13,3,13,0.00
2013-4-5,71.3,57.4,44.7,36.1,28.7,22.0,59,37,17,30.02,29.76,34,4,34,0.00
2013-4-6,63.6,53.8,39.7,34.5,25.8,22.8,55,35,22,29.97,29.88,34,5,34,0.00
2013-4-7,63.2,52.5,40.6,34.5,29.6,22.8,74,44,22,29.90,29.74,24,5,24,0.00
2013-4-8,63.2,45.5,27.1,35.3,30.4,24.6,91,59,30,29.84,29.51,37,7,37,0.00
2013-4-9,27.2,17.7,12.1,24.9,14.1,7.9,91,85,79,30.11,29.84,17,6,17,0.00
2013-4-10,28.0,19.2,8.1,17.4,11.9,4.4,86,73,60,30.10,29.89,12,3,12,0.21
2013-4-11,55.1,38.7,21.5,35.2,26.7,16.4,85,65,35,29.92,29.76,21,4,21,0.01
2013-4-12,58.2,42.6,32.4,35.1,30.8,15.9,87,66,20,29.98,29.89,30,4,30,0.00
2013-4-13,67.5,50.4,30.4,34.8,25.9,15.7,91,49,15,29.97,29.51,26,4,26,0.36
2013-4-14,50.9,43.8,37.5,38.8,20.0,4.5,89,42,16,29.78,29.53,31,10,31,0.18
2013-4-15,38.9,29.2,23.2,26.8,23.7,13.4,92,82,35,29.98,29.75,22,4,22,0.00
2013-4-16,33.4,28.6,23.3,29.5,25.3,21.1,92,87,81,29.98,29.82,23,6,23,0.37
2013-4-17,30.3,26.4,20.4,28.0,24.3,18.1,93,91,90,30.08,29.90,26,8,26,0.06
2013-4-18,37.2,27.0,15.7,20.5,15.7,8.1,91,66,35,30.10,30.04,15,4,15,0.03
2013-4-19,51.3,41.3,25.4,27.6,18.9,12.6,71,42,26,30.10,29.96,21,3,21,0.00
2013-4-20,57.3,47.4,38.1,36.9,30.0,23.8,67,52,34,30.01,29.91,14,4,14,0.00
2013-4-21,62.7,51.5,37.4,32.2,25.1,20.8,63,38,21,30.06,29.98,16,4,16,0.00
2013-4-22,53.4,35.1,23.1,35.9,27.3,20.9,91,75,46,30.21,29.92,25,6,25,0.02
2013-4-23,33.9,25.7,20.9,21.1,19.2,17.5,91,77,55,30.21,30.09,7,2,7,0.35
2013-4-24,54.6,38.5,20.6,24.4,17.4,11.5,81,48,19,30.17,30.09,24,4,24,0.02
2013-4-25,64.3,48.6,29.4,32.0,20.7,11.9,69,38,15,30.15,29.93,15,2,15,0.00
2013-4-26,66.0,54.2,36.8,27.4,22.2,15.4,66,32,17,30.21,30.01,16,4,16,0.00
2013-4-27,73.2,59.0,38.2,27.8,20.6,12.2,59,27,10,30.21,30.05,20,4,20,0.00
2013-4-28,78.5,64.4,43.8,33.9,26.4,20.1,50,26,12,30.08,29.89,22,5,22,0.00
2013-4-29,78.6,66.0,47.5,37.6,29.6,21.6,63,29,13,29.97,29.72,21,4,21,0.00
2013-4-30,62.4,50.8,37.8,40.2,34.7,23.7,89,56,24,30.02,29.72,22,5,22,0.01
2013-5-1,37.9,30.7,23.6,35.7,28.8,21.3,95,92,89,30.50,30.02,16,4,16,0.25
2013-5-2,44.4,33.9,20.4,27.0,21.7,17.4,92,64,36,30.55,30.35,10,2,10,0.24
2013-5-3,59.4,46.0,27.4,28.8,24.8,15.7,83,48,21,30.35,30.08,13,3,13,0.00
2013-5-4,58.7,48.7,34.6,33.5,29.0,25.0,75,48,33,30.19,30.08,16,4,16,0.00
2013-5-5,56.3,47.1,36.7,33.4,28.2,25.0,66,48,34,30.19,30.10,14,3,14,0.00
2013-5-6,63.7,52.9,41.5,38.6,34.3,31.3,70,51,33,30.10,29.95,16,4,16,0.00
2013-5-7,69.7,55.6,43.4,46.4,38.5,32.1,91,57,27,30.00,29.91,26,3,26,0.11
2013-5-8,59.4,48.3,41.6,45.4,42.1,38.5,92,80,49,30.09,29.98,21,5,21,0.28
2013-5-9,55.5,48.0,41.2,46.3,42.6,37.6,94,82,58,30.19,30.08,23,4,23,0.32
2013-5-10,65.2,51.8,35.9,45.7,38.1,33.2,91,63,34,30.27,30.17,26,3,26,0.03
2013-5-11,67.5,56.6,43.4,43.1,38.3,33.5,79,52,32,30.36,30.24,22,4,22,0.00
2013-5-12,78.0,65.7,49.1,40.5,36.1,32.7,63,36,21,30.24,30.13,14,3,14,0.00
2013-5-13,84.5,70.1,53.3,45.5,39.9,33.2,62,36,20,30.18,30.09,17,3,17,0.00
2013-5-14,85.0,70.2,54.3,45.5,40.2,33.7,60,36,17,30.09,30.00,26,6,26,0.00
2013-5-15,81.0,64.8,54.0,50.4,43.6,38.8,70,49,24,30.03,29.94,24,4,24,0.01
2013-5-16,80.0,66.3,50.3,48.2,42.1,33.3,82,47,20,30.01,29.88,14,2,14,0.00
2013-5-17,86.7,69.8,49.6,44.9,33.3,14.7,72,34,8,29.93,29.83,18,3,18,0.00
2013-5-18,77.0,63.8,52.1,40.0,32.5,24.8,56,33,15,29.96,29.83,20,4,20,0.00
2013-5-19,69.7,60.0,51.1,40.4,32.1,24.5,63,37,19,29.90,29.81,22,7,22,0.00
2013-5-20,64.5,53.2,48.0,48.5,41.3,32.1,86,66,41,30.05,29.89,25,3,25,0.22
2013-5-21,71.0,56.1,40.0,42.3,35.7,29.0,92,52,22,30.05,29.91,20,4,20,0.00
2013-5-22,77.0,60.9,43.7,49.6,39.1,33.9,80,48,24,30.01,29.92,21,3,21,0.00
2013-5-23,71.3,59.2,46.8,50.3,46.8,43.8,91,66,42,30.11,29.92,13,3,13,0.00
2013-5-24,84.3,66.8,46.2,54.6,42.8,25.8,92,50,13,30.02,29.93,20,4,20,0.00
2013-5-25,88.3,71.7,51.6,53.2,37.5,7.7,86,38,6,30.03,29.91,14,3,14,0.00
2013-5-26,85.0,70.6,54.4,45.8,33.8,17.9,57,29,9,29.98,29.93,25,3,25,0.00
2013-5-27,82.3,68.1,50.1,40.2,31.6,20.8,61,30,11,29.93,29.82,18,2,18,0.00
2013-5-28,81.6,65.6,49.2,48.3,37.1,24.3,60,38,14,29.89,29.70,20,3,20,0.00
2013-5-29,64.5,56.9,49.0,54.5,44.5,30.9,94,66,35,29.78,29.70,26,3,26,0.28
2013-5-30,68.6,60.2,46.5,35.8,30.4,20.9,63,34,17,29.92,29.70,31,9,31,0.00
2013-5-31,71.0,60.6,45.2,34.7,22.5,9.9,59,26,11,29.95,29.91,31,9,31,0.00
2013-6-1,70.0,58.6,44.3,40.5,37.0,21.9,76,47,25,30.21,29.95,16,2,16,0.00
2013-6-2,85.0,64.4,42.3,43.3,37.3,29.7,79,41,14,30.20,29.90,12,2,12,0.00
2013-6-3,89.0,72.6,49.3,41.7,33.1,21.8,62,28,10,29.97,29.83,22,6,22,0.00
2013-6-4,73.3,61.5,49.9,54.1,46.4,31.8,95,59,29,30.12,29.97,20,3,20,0.12
2013-6-5,56.8,51.6,46.8,48.0,46.4,43.3,92,82,71,30.22,30.12,9,2,9,0.02
2013-6-6,78.4,63.3,42.2,49.9,42.7,37.8,92,53,24,30.16,30.06,12,2,12,0.00
2013-6-7,80.0,66.3,48.8,48.8,43.3,35.7,83,46,24,30.11,29.91,20,2,20,0.00
2013-6-8,77.0,67.5,56.0,51.4,44.8,40.0,62,45,31,30.03,29.86,18,3,18,0.00
2013-6-9,91.1,70.9,48.3,48.0,42.4,35.3,81,43,15,30.09,29.99,12,2,12,0.00
2013-6-10,95.8,79.3,57.4,50.4,40.8,32.5,58,29,11,30.00,29.93,21,2,21,0.00
2013-6-11,96.8,81.3,62.7,47.8,31.5,8.3,53,21,4,30.01,29.86,29,6,29,0.00
2013-6-12,93.1,77.1,57.3,51.9,36.0,26.0,50,24,12,30.13,30.01,20,2,20,0.00
2013-6-13,83.2,70.9,56.8,62.7,53.7,41.3,87,58,28,30.16,29.97,17,4,17,0.00
2013-6-14,89.9,78.2,65.6,48.1,42.7,33.6,53,30,16,30.02,29.94,25,5,25,0.00
2013-6-15,80.8,69.6,54.9,56.7,49.3,46.1,73,50,35,30.12,30.02,16,2,16,0.00
2013-6-16,83.0,67.4,55.4,51.9,47.5,36.2,77,52,24,30.16,30.09,26,2,26,0.07
2013-6-17,80.1,66.6,50.6,51.9,45.9,36.2,80,51,27,30.18,30.08,34,2,34,0.00
2013-6-18,85.1,68.8,55.0,54.8,50.5,39.2,87,56,22,30.16,29.97,30,3,30,0.00
2013-6-19,93.7,74.5,52.3,52.5,41.7,22.5,85,40,8,30.02,29.76,20,3,20,0.00
2013-6-20,90.8,74.0,54.8,53.9,37.1,24.1,68,29,13,29.99,29.84,13,3,13,0.00
2013-6-21,94.8,76.4,55.5,51.7,39.8,23.1,72,32,9,29.96,29.91,26,2,26,0.00
2013-6-22,83.5,70.8,56.0,51.6,48.4,44.8,75,47,26,30.02,29.85,13,3,13,0.00
2013-6-23,84.4,67.3,51.7,57.9,49.0,42.8,88,57,24,30.04,29.91,18,3,18,0.19
2013-6-24,90.0,72.2,56.4,53.8,45.1,32.9,76,44,14,29.99,29.85,15,3,15,0.06
2013-6-25,91.8,75.8,55.1,48.9,40.0,30.3,63,31,15,30.08,29.88,13,2,13,0.00
2013-6-26,97.8,79.7,58.0,48.1,42.8,37.1,63,32,14,30.14,30.05,13,2,13,0.00
2013-6-27,97.8,82.0,63.1,52.0,45.0,38.8,62,30,14,30.24,30.12,15,2,15,0.00
2013-6-28,92.3,77.7,62.3,59.2,52.4,37.7,85,43,18,30.32,30.18,22,3,22,0.14
2013-6-29,84.0,71.4,60.2,58.8,55.2,46.2,82,58,33,30.32,30.15,26,2,26,0.01
2013-6-30,75.0,69.0,61.5,59.5,55.8,51.5,81,63,50,30.23,30.17,13,2,13,0.00
2013-7-1,81.7,68.1,54.2,58.1,53.9,49.3,91,63,39,30.29,30.22,18,2,18,0.11
2013-7-2,83.4,69.5,53.1,57.6,51.5,45.3,97,58,30,30.26,30.16,14,2,14,0.27
2013-7-3,89.8,71.7,53.9,54.1,48.9,44.6,84,49,23,30.16,29.98,24,3,24,0.01
2013-7-4,91.5,76.3,58.2,56.3,48.5,43.6,76,40,21,30.06,29.99,27,3,27,0.00
2013-7-5,90.5,74.2,61.4,58.3,52.5,47.9,70,48,26,30.00,29.92,23,2,23,0.00
2013-7-6,89.5,75.5,66.2,63.4,53.0,45.8,80,48,24,30.06,29.94,20,3,20,0.12
2013-7-7,83.2,72.8,60.8,60.0,54.5,49.7,79,54,37,30.11,30.05,16,3,16,0.00
2013-7-8,95.3,79.4,63.7,55.7,50.9,45.1,67,39,19,30.15,30.08,29,2,29,0.00
2013-7-9,93.5,77.9,62.1,54.6,48.6,39.9,66,39,16,30.21,30.15,29,3,29,0.00
2013-7-10,87.7,75.5,59.8,59.7,53.4,44.2,74,47,33,30.25,30.10,21,3,21,0.00
2013-7-11,99.7,78.1,59.3,60.5,54.4,41.4,85,49,14,30.14,29.95,23,4,23,0.09
2013-7-12,93.4,74.3,62.1,63.4,57.2,51.6,92,59,25,30.08,30.01,21,2,21,0.11
2013-7-13,90.7,70.9,58.9,63.3,60.3,55.8,96,74,33,30.21,30.07,30,2,30,1.71
2013-7-14,79.4,68.7,57.2,63.1,59.6,55.4,96,75,50,30.26,30.13,12,2,12,0.02
2013-7-15,77.0,67.6,62.2,65.8,59.6,50.1,96,77,53,30.23,30.14,16,2,16,0.75
2013-7-16,84.1,69.7,53.5,57.4,52.3,48.4,94,57,33,30.23,30.16,15,3,15,0.00
2013-7-17,91.0,73.8,54.5,58.5,53.8,49.5,90,53,29,30.24,30.14,10,2,10,0.00
2013-7-18,93.7,76.5,61.8,58.2,54.3,47.8,77,49,27,30.21,30.12,21,3,21,0.00
2013-7-19,83.3,74.1,65.2,59.6,56.9,53.1,74,56,38,30.22,30.14,13,2,13,0.00
2013-7-20,92.2,73.3,57.1,59.0,54.4,49.3,86,56,25,30.14,29.99,17,2,17,0.00
2013-7-21,90.4,74.0,56.9,63.1,57.3,52.0,87,58,34,30.09,29.98,15,2,15,0.00
2013-7-22,95.7,79.7,61.7,60.7,51.7,39.1,76,41,17,30.06,29.97,13,2,13,0.00
2013-7-23,91.7,77.1,61.8,58.8,50.2,34.1,61,40,25,30.17,30.03,12,2,12,0.00
2013-7-24,80.5,72.7,63.0,64.0,56.1,45.9,78,57,34,30.19,30.11,23,4,23,0.00
2013-7-25,80.5,65.5,58.6,60.3,55.1,51.1,87,71,40,30.25,30.11,23,2,23,0.05
2013-7-26,86.5,70.5,54.0,55.6,51.4,45.1,89,55,25,30.30,30.22,17,2,17,0.00
2013-7-27,79.6,66.9,55.5,61.4,54.6,48.9,94,67,44,30.23,30.09,12,2,12,0.42
2013-7-28,69.9,62.6,59.3,62.4,59.1,56.7,96,89,68,30.12,30.03,9,1,9,0.04
2013-7-29,71.8,63.1,57.3,62.7,57.9,53.6,94,84,58,30.17,30.00,10,1,10,0.05
2013-7-30,89.3,70.2,53.8,58.2,53.5,48.3,92,60,27,30.27,30.14,26,2,26,0.03
2013-7-31,91.1,74.3,59.6,56.4,52.5,44.7,80,50,21,30.33,30.17,12,2,12,0.00
2013-8-1,93.1,74.7,59.0,61.1,53.2,39.4,85,51,18,30.25,30.05,18,2,18,0.00
2013-8-2,95.0,75.8,59.3,55.9,52.0,45.7,76,47,22,30.07,30.02,18,2,18,0.00
2013-8-3,89.4,71.9,59.9,60.2,55.9,49.3,92,61,27,30.31,30.04,23,3,23,0.44
2013-8-4,88.8,71.5,55.5,60.5,54.4,46.9,88,58,29,30.26,30.13,14,3,14,0.00
2013-8-5,87.4,72.3,58.3,61.0,52.9,48.0,83,54,27,30.15,30.09,20,2,20,0.01
2013-8-6,90.2,72.9,59.9,59.1,50.6,43.1,76,49,21,30.13,30.05,27,4,27,0.00
2013-8-7,76.2,66.8,60.2,57.9,52.9,47.5,78,62,42,30.13,30.07,12,2,12,0.01
2013-8-8,77.1,64.4,56.4,59.0,54.8,46.9,92,73,48,30.22,30.07,15,3,15,0.00
2013-8-9,81.0,64.0,52.1,54.7,50.2,45.8,84,63,31,30.22,30.18,17,2,17,0.00
2013-8-10,88.8,68.6,50.6,53.1,48.5,42.0,85,54,22,30.23,30.16,23,2,23,0.00
2013-8-11,83.5,70.4,57.1,54.3,49.6,44.1,78,50,29,30.23,30.17,15,2,15,0.00
2013-8-12,81.3,67.0,55.8,58.2,52.6,48.1,92,62,34,30.21,30.17,14,2,14,0.28
2013-8-13,79.3,66.0,52.2,55.7,51.5,46.3,93,63,34,30.25,30.19,24,3,24,0.53
2013-8-14,85.3,67.0,52.8,60.8,51.3,45.7,90,60,26,30.23,30.15,10,1,10,0.04
2013-8-15,87.1,69.2,53.3,54.4,48.1,42.4,78,51,23,30.21,30.13,12,2,12,0.00
2013-8-16,93.5,73.0,53.5,53.2,46.1,35.0,78,45,14,30.21,30.13,10,1,10,0.00
2013-8-17,97.0,76.1,56.0,51.6,45.5,31.8,73,40,12,30.19,30.07,10,1,10,0.00
2013-8-18,94.3,75.8,58.5,56.4,48.4,39.0,80,42,17,30.18,30.10,18,2,18,0.00
2013-8-19,71.3,63.5,57.2,54.4,48.0,45.6,71,58,45,30.18,30.12,4,0,4,0.00
2013-8-20,93.0,84.0,71.4,51.8,44.1,37.9,50,25,15,30.15,30.03,14,3,14,0.00
2013-8-21,90.8,76.1,64.2,57.1,51.5,44.3,67,44,25,30.17,30.09,20,2,20,0.78
2013-8-22,83.2,69.6,60.5,64.4,57.9,51.5,88,68,44,30.26,30.16,32,2,32,0.18
2013-8-23,89.3,70.2,60.5,61.4,57.3,49.6,90,67,30,30.23,30.03,20,3,20,0.10
2013-8-24,84.9,69.9,55.3,58.5,54.9,49.6,88,62,33,30.14,30.07,17,2,17,0.00
2013-8-25,90.3,73.7,61.5,58.2,54.5,50.9,76,54,29,30.18,30.13,17,1,17,0.00
2013-8-26,92.5,75.3,60.0,59.2,56.0,52.2,83,55,27,30.19,30.13,20,3,20,0.00
2013-8-27,93.1,76.2,60.4,60.4,56.8,54.1,83,54,29,30.19,30.10,12,1,12,0.00
2013-8-28,95.2,76.6,59.5,59.1,54.7,48.6,86,51,22,30.17,30.11,10,1,10,0.00
2013-8-29,94.9,76.8,59.5,58.1,52.5,47.6,79,47,22,30.22,30.15,21,2,21,0.00
2013-8-30,91.5,74.4,65.6,61.5,55.4,50.0,73,53,27,30.24,30.17,20,2,20,0.03
2013-8-31,92.5,75.5,63.7,58.5,52.5,47.6,71,47,24,30.18,30.11,17,3,17,0.00
2013-9-1,76.6,69.6,63.3,61.1,57.2,49.6,79,65,45,30.24,30.15,14,2,14,0.00
2013-9-2,91.2,72.9,55.7,58.4,53.8,46.8,87,56,22,30.17,30.07,12,1,12,0.00
2013-9-3,95.3,78.0,64.2,58.1,53.8,50.0,74,45,24,30.17,30.10,17,3,17,0.00
2013-9-4,93.5,76.6,66.5,60.3,55.1,51.9,72,49,27,30.23,30.17,9,1,9,0.00
2013-9-5,95.2,76.1,61.5,58.1,53.3,49.1,71,48,24,30.23,30.15,12,1,12,0.00
2013-9-6,96.4,76.8,59.4,56.6,51.6,43.6,76,46,17,30.19,30.18,14,2,14,0.00
2013-9-7,95.4,75.5,58.5,55.7,50.0,39.2,81,46,16,30.19,30.09,10,1,10,0.00
2013-9-8,90.0,72.4,56.5,55.9,51.5,48.0,78,51,25,30.09,29.96,14,2,14,0.00
2013-9-9,84.6,66.7,57.8,61.3,55.1,51.4,94,69,35,30.10,29.95,37,3,37,0.49
2013-9-10,67.1,60.6,58.4,60.3,58.6,56.5,96,93,76,30.23,30.10,12,1,12,0.36
2013-9-11,70.5,62.0,59.3,62.8,60.2,58.2,97,94,73,30.23,30.19,12,1,12,0.30
2013-9-12,62.6,60.4,58.4,61.3,59.2,57.1,97,96,93,30.25,30.22,13,2,13,0.85
2013-9-13,78.2,63.5,57.5,62.6,58.8,54.3,98,86,53,30.22,29.97,18,1,18,0.19
2013-9-14,75.0,63.2,58.0,60.6,57.2,52.3,96,82,51,30.01,29.96,16,2,16,0.02
2013-9-15,60.6,57.5,54.7,56.5,55.0,52.6,96,92,76,30.26,29.98,17,1,17,0.37
2013-9-16,77.3,62.2,54.4,58.9,55.5,53.0,97,81,49,30.26,30.09,6,1,6,0.00
2013-9-17,86.4,67.8,50.2,53.0,47.4,38.5,89,54,19,30.10,29.93,10,1,10,0.00
2013-9-18,85.0,69.1,55.5,54.0,47.6,42.2,79,49,27,29.97,29.87,21,3,21,0.00
2013-9-19,67.0,60.2,50.6,47.1,44.0,36.4,79,56,41,30.20,29.97,12,1,12,0.00
2013-9-20,75.2,59.3,47.7,48.5,45.6,42.6,86,63,33,30.20,30.08,8,1,8,0.00
2013-9-21,84.6,65.2,45.8,48.7,43.9,39.1,84,52,21,30.09,29.90,12,2,12,0.00
2013-9-22,79.3,63.2,51.5,53.8,47.1,41.3,90,58,31,29.90,29.71,25,2,25,0.05
2013-9-23,66.8,57.3,48.7,52.1,39.0,30.5,94,55,28,30.08,29.67,32,7,32,0.39
2013-9-24,79.1,59.1,41.9,42.8,36.2,27.5,72,46,21,30.14,29.92,7,1,7,0.00
2013-9-25,84.6,63.4,42.2,47.3,36.6,28.1,77,44,14,29.92,29.62,22,3,22,0.00
2013-9-26,69.0,57.2,44.4,48.5,43.9,37.1,88,62,44,29.86,29.67,14,2,14,0.00
2013-9-27,52.6,47.3,40.4,50.3,45.3,39.1,100,93,88,29.97,29.81,10,1,10,0.29
2013-9-28,70.2,50.1,34.2,40.7,34.9,26.4,95,63,24,30.13,29.97,10,2,10,0.01
2013-9-29,78.3,57.2,39.1,46.7,36.3,25.6,89,52,18,30.13,29.95,13,2,13,0.00
2013-9-30,84.0,64.9,52.1,50.5,41.1,31.3,63,44,21,29.97,29.87,9,1,9,0.00
2013-10-1,77.0,59.6,44.9,46.0,41.7,36.0,78,54,30,30.06,29.96,13,2,13,0.00
2013-10-2,78.3,60.3,44.0,45.5,41.4,33.7,87,56,21,30.02,29.93,12,1,12,0.00
2013-10-3,63.9,52.4,40.8,48.1,42.9,38.1,95,72,46,29.98,29.81,12,2,12,0.03
2013-10-4,49.0,37.8,31.6,47.1,34.6,27.8,95,88,70,30.16,29.84,18,2,18,0.35
2013-10-5,61.2,44.4,27.5,32.4,20.7,7.6,93,50,16,30.17,30.12,20,3,20,0.01
2013-10-6,70.8,50.8,32.4,40.0,30.0,8.1,81,50,18,30.24,30.16,7,1,7,0.00
2013-10-7,81.4,57.5,36.9,39.9,32.7,21.3,83,46,12,30.21,30.00,7,1,7,0.00
2013-10-8,80.3,61.0,46.9,47.3,35.9,25.5,67,43,14,30.00,29.80,14,1,14,0.00
2013-10-9,65.0,53.6,42.8,44.6,40.4,35.3,85,63,42,30.01,29.87,12,1,12,0.00
2013-10-10,61.1,50.1,42.3,48.1,42.1,33.5,94,75,49,30.00,29.65,28,2,28,0.00
2013-10-11,60.2,52.6,39.9,40.0,32.5,24.7,90,49,30,30.05,29.58,40,5,40,0.00
2013-10-12,59.0,47.6,37.1,42.8,39.4,33.9,92,74,51,30.17,30.05,13,2,13,0.00
2013-10-13,62.9,48.0,34.5,45.1,39.8,32.7,95,75,48,30.13,29.97,7,1,7,0.01
2013-10-14,58.7,47.3,39.3,44.0,38.7,32.8,92,73,42,30.16,29.88,20,3,20,0.11
2013-10-15,39.8,37.3,33.7,33.2,27.7,24.1,85,68,62,30.22,30.16,9,1,9,0.00
2013-10-16,55.6,40.0,27.7,32.4,28.5,24.9,93,67,34,30.19,30.00,9,1,9,0.00
2013-10-17,50.9,41.3,31.9,33.1,29.6,24.3,84,64,48,30.12,30.03,10,1,10,0.00
2013-10-18,45.5,36.7,31.4,34.1,30.2,26.8,100,78,53,30.16,30.02,15,1,15,0.17
2013-10-19,65.0,46.6,29.2,30.6,24.9,20.5,83,48,19,30.11,29.96,21,3,21,0.00
2013-10-20,55.4,43.6,32.6,37.0,31.0,21.4,93,65,27,30.10,29.92,20,2,20,0.19
2013-10-21,60.4,42.3,28.8,38.2,30.3,25.1,96,68,27,30.16,30.09,13,1,13,0.01
2013-10-22,66.3,51.5,34.9,36.5,31.0,24.9,80,49,26,30.16,30.12,14,2,14,0.00
2013-10-23,66.3,48.9,34.8,36.8,33.0,28.3,85,59,28,30.17,30.12,10,1,10,0.00
2013-10-24,58.2,44.3,32.0,39.5,35.6,29.1,94,73,48,30.24,30.17,7,1,7,0.00
2013-10-25,70.8,50.1,32.3,38.8,33.9,29.8,95,61,23,30.22,30.10,10,1,10,0.00
2013-10-26,64.1,49.9,36.9,36.8,33.8,31.0,81,56,30,30.31,30.16,9,1,9,0.00
2013-10-27,71.0,52.0,37.4,33.5,28.5,21.0,75,46,16,30.16,29.89,16,2,16,0.00
2013-10-28,48.0,37.4,32.9,35.3,31.8,26.5,95,81,44,30.05,29.90,20,2,20,0.03
2013-10-29,39.1,35.5,32.6,34.6,32.5,31.3,95,89,79,30.02,29.93,6,1,6,0.01
2013-10-30,52.2,38.8,32.1,39.0,33.3,23.3,96,82,36,29.93,29.85,14,2,14,0.99
2013-10-31,51.9,44.7,29.1,25.8,21.6,17.2,80,42,27,29.92,29.84,34,10,34,0.00
2013-11-1,51.7,44.1,34.7,32.5,25.9,20.1,72,50,29,30.18,29.92,32,5,32,0.00
2013-11-2,66.7,44.8,28.1,29.5,23.4,18.1,74,48,17,30.18,29.88,7,1,7,0.00
2013-11-3,69.8,52.6,38.2,30.0,19.7,11.1,71,31,11,29.88,29.64,18,3,18,0.00
2013-11-4,43.4,35.8,29.3,30.9,21.8,16.3,85,58,35,30.01,29.88,16,4,16,0.00
2013-11-5,44.1,34.3,26.4,24.7,17.0,3.4,74,51,21,30.12,29.91,15,2,15,0.00
2013-11-6,53.1,40.6,26.4,18.0,13.5,1.0,53,34,23,30.29,30.12,26,4,26,0.00
2013-11-7,58.6,42.9,29.5,27.7,22.1,16.0,67,46,26,30.31,30.00,12,1,12,0.00
2013-11-8,66.3,50.4,33.3,26.6,22.8,16.5,70,38,16,30.02,29.86,23,2,23,0.00
2013-11-9,67.1,50.0,37.3,34.5,27.0,19.9,69,43,18,30.20,30.02,13,2,13,0.00
2013-11-10,68.0,47.9,30.7,28.6,25.1,20.4,82,47,17,30.22,30.14,10,1,10,0.00
2013-11-11,68.5,43.6,31.6,32.7,25.7,17.6,88,56,15,30.45,30.19,22,4,22,0.00
2013-11-12,62.1,42.9,30.7,31.2,28.2,23.5,89,61,26,30.53,30.33,10,1,10,0.00
2013-11-13,69.9,51.1,31.4,24.1,17.7,7.4,74,32,10,30.33,30.03,13,2,13,0.00
2013-11-14,59.4,49.7,35.8,34.5,27.7,17.8,62,43,27,30.08,29.84,28,4,28,0.00
2013-11-15,63.9,47.7,30.6,27.5,18.8,10.2,59,35,15,29.84,29.57,20,4,20,0.00
2013-11-16,59.2,45.3,31.0,33.3,22.9,14.1,84,45,18,29.62,29.42,32,5,32,0.00
2013-11-17,56.7,43.7,33.7,26.8,19.7,15.3,64,40,20,30.07,29.62,31,6,31,0.00
2013-11-18,66.9,44.3,27.1,20.5,16.9,10.0,71,39,12,30.12,30.02,9,2,9,0.00
2013-11-19,62.0,45.3,31.1,27.8,20.5,15.2,61,39,18,30.03,29.77,9,1,9,0.00
2013-11-20,58.7,47.8,30.4,28.4,26.1,23.2,82,45,26,30.02,29.80,26,3,26,0.00
2013-11-21,30.0,18.1,14.4,25.4,13.9,9.2,94,83,78,30.44,30.02,14,3,14,0.00
2013-11-22,34.2,26.9,17.1,21.8,16.5,10.3,83,66,42,30.47,30.36,15,1,15,0.08
2013-11-23,33.9,28.1,25.2,21.6,18.5,13.3,80,67,55,30.48,30.24,9,1,9,0.02
2013-11-24,40.7,30.3,22.5,28.1,23.3,16.9,88,76,39,30.24,29.95,18,1,18,0.01
2013-11-25,41.2,36.6,27.3,27.8,23.4,14.6,80,60,34,30.25,29.99,20,3,20,0.00
2013-11-26,49.7,36.0,25.3,27.1,21.0,17.0,86,58,29,30.33,30.20,12,1,12,0.01
2013-11-27,63.6,42.6,26.1,22.9,19.8,16.6,71,45,17,30.20,30.03,12,2,12,0.00
2013-11-28,47.4,35.9,26.7,27.2,23.9,20.1,80,63,43,30.18,30.10,12,2,12,0.00
2013-11-29,62.1,43.7,26.9,24.9,20.4,16.4,81,45,17,30.15,30.07,15,3,15,0.00
2013-11-30,59.9,44.3,31.4,19.4,15.2,11.6,57,33,16,30.16,30.08,14,2,14,0.00
2013-12-1,57.6,45.1,27.8,26.9,19.0,12.9,63,37,20,30.14,29.89,20,3,20,0.00
2013-12-2,58.6,52.5,44.4,26.4,22.4,19.6,45,31,24,29.91,29.64,28,8,28,0.00
2013-12-3,57.0,37.9,13.4,29.8,19.4,9.5,92,51,28,29.75,29.53,24,6,24,0.00
2013-12-4,13.4,8.1,-0.7,9.7,3.6,-4.9,85,82,75,29.97,29.74,12,2,12,0.00
2013-12-5,7.0,1.0,-6.4,-0.1,-4.4,-10.7,87,78,66,30.02,29.92,12,2,12,0.00
2013-12-6,10.3,2.0,-5.6,0.7,-3.5,-10.0,92,78,60,30.11,30.01,7,1,7,0.00
2013-12-7,10.0,2.3,-3.9,2.7,-2.5,-8.1,92,80,70,30.10,29.75,10,1,10,0.00
2013-12-8,22.0,10.1,1.3,10.9,4.4,-2.7,86,78,61,29.93,29.69,10,1,10,0.05
2013-12-9,28.9,14.9,0.0,5.0,-0.7,-7.4,84,55,22,30.06,29.92,31,4,31,0.00
2013-12-10,48.4,31.9,13.1,17.7,10.3,-0.6,65,42,25,30.09,29.89,28,4,28,0.11
2013-12-11,37.6,24.2,12.0,20.3,14.4,8.2,92,67,42,30.24,30.09,12,1,12,0.00
2013-12-12,57.7,33.7,18.2,23.2,14.9,9.4,76,51,17,30.23,29.93,7,1,7,0.00
2013-12-13,50.4,33.7,21.3,21.1,15.9,10.7,74,52,20,30.10,29.85,13,2,13,0.00
2013-12-14,45.7,33.8,19.6,20.9,16.2,12.4,83,52,26,30.22,30.10,23,3,23,0.00
2013-12-15,55.4,47.9,31.8,21.5,17.3,10.0,58,30,17,30.14,30.06,29,8,29,0.00
2013-12-16,63.7,52.5,34.6,20.5,14.4,6.7,48,23,12,30.20,30.09,28,8,28,0.00
2013-12-17,65.0,46.2,29.4,19.3,16.1,11.9,58,33,15,30.27,30.08,18,3,18,0.00
2013-12-18,66.1,49.1,36.2,21.1,16.4,11.2,47,30,12,30.08,29.77,9,2,9,0.00
2013-12-19,46.7,35.1,17.3,25.6,20.7,14.6,89,57,39,29.86,29.61,18,4,18,0.00
2013-12-20,25.2,20.9,17.0,20.3,17.7,14.3,90,87,80,29.87,29.67,6,1,6,0.00
2013-12-21,32.5,22.7,14.1,23.3,18.2,11.2,99,83,62,29.86,29.58,17,2,17,0.00
2013-12-22,41.5,26.9,14.4,20.1,14.6,9.2,91,64,27,30.04,29.86,19,3,19,0.01
2013-12-23,47.7,33.0,19.9,23.8,20.4,17.2,90,64,36,30.20,30.04,18,3,18,0.02
2013-12-24,53.4,42.0,27.0,29.7,17.9,4.9,53,38,26,30.22,29.98,36,10,36,0.00
2013-12-25,46.9,31.4,19.1,11.9,8.7,4.5,68,41,18,30.31,30.17,14,2,14,0.00
2013-12-26,54.9,43.5,28.6,17.9,11.2,-2.7,56,29,12,30.24,30.14,26,4,26,0.00
2013-12-27,62.9,40.8,28.2,22.0,19.6,16.4,66,46,19,30.23,30.03,7,1,7,0.00
2013-12-28,59.3,37.1,22.0,27.9,22.0,18.5,90,58,22,30.18,29.87,21,4,21,0.00
2013-12-29,42.9,26.3,14.5,20.9,16.2,11.3,89,68,30,30.18,29.90,24,3,24,0.06
2013-12-30,47.9,39.2,29.3,16.8,14.5,9.9,54,37,22,30.16,29.92,26,7,26,0.01
2013-12-31,56.5,43.8,28.5,22.8,19.1,13.5,60,38,25,30.08,29.93,30,6,30,0.00
2014-1-1,47.6,35.0,22.4,30.3,25.1,18.7,92,70,36,30.25,29.90,27,6,27,0.00
2014-1-2,49.6,31.3,18.1,24.5,19.0,13.7,86,64,27,30.22,30.00,9,2,9,0.04